createdAt,value
2024-04-30T00:01:33.063Z,14.96
2024-04-30T00:04:34.664Z,14.90
2024-04-30T00:07:38.389Z,14.83
2024-04-30T00:10:40.054Z,14.83
2024-04-30T00:13:41.852Z,14.78
2024-04-30T00:16:44.439Z,14.73
2024-04-30T00:19:46.141Z,14.62
2024-04-30T00:22:47.758Z,14.61
2024-04-30T00:25:49.317Z,14.73
2024-04-30T00:28:51.021Z,14.80
2024-04-30T00:31:52.617Z,14.80
2024-04-30T00:34:56.182Z,14.78
2024-04-30T00:37:57.741Z,14.76
2024-04-30T00:40:59.694Z,14.69
2024-04-30T00:44:01.344Z,14.64
2024-04-30T00:47:03.476Z,14.60
2024-04-30T00:50:05.931Z,14.53
2024-04-30T00:53:07.800Z,14.46
2024-04-30T00:56:10.017Z,14.42
2024-04-30T00:59:11.664Z,14.39
2024-04-30T01:02:13.302Z,14.38
2024-04-30T01:05:14.926Z,14.34
2024-04-30T01:08:16.526Z,14.29
2024-04-30T01:11:18.104Z,14.32
2024-04-30T01:14:19.847Z,14.31
2024-04-30T01:17:21.486Z,14.30
2024-04-30T01:20:23.132Z,14.30
2024-04-30T01:23:24.815Z,14.31
2024-04-30T01:26:26.398Z,14.31
2024-04-30T01:29:27.966Z,14.29
2024-04-30T01:32:29.691Z,14.25
2024-04-30T01:35:31.439Z,14.15
2024-04-30T01:38:33.024Z,14.06
2024-04-30T01:41:34.589Z,13.97
2024-04-30T01:44:36.237Z,13.97
2024-04-30T01:47:37.871Z,13.95
2024-04-30T01:50:39.534Z,13.92
2024-04-30T01:53:44.990Z,13.88
2024-04-30T01:56:46.679Z,13.81
2024-04-30T01:59:48.304Z,13.83
2024-04-30T02:02:49.863Z,13.83
2024-04-30T02:05:51.452Z,13.72
2024-04-30T02:08:52.982Z,13.64
2024-04-30T02:11:54.624Z,13.60
2024-04-30T02:14:56.305Z,13.55
2024-04-30T02:17:57.900Z,13.57
2024-04-30T02:20:59.616Z,13.50
2024-04-30T02:24:01.226Z,13.46
2024-04-30T02:27:02.827Z,13.49
2024-04-30T02:30:04.895Z,13.48
2024-04-30T02:33:31.972Z,13.46
2024-04-30T02:36:33.522Z,13.35
2024-04-30T02:39:35.066Z,13.28
2024-04-30T02:42:36.622Z,13.17
2024-04-30T02:45:38.177Z,13.11
2024-04-30T02:48:39.730Z,13.13
2024-04-30T02:51:41.302Z,13.07
2024-04-30T02:54:43.219Z,13.14
2024-04-30T02:57:44.864Z,13.10
2024-04-30T03:00:46.557Z,13.06
2024-04-30T03:03:48.167Z,13.06
2024-04-30T03:06:49.818Z,13.06
2024-04-30T03:09:51.448Z,12.93
2024-04-30T03:12:53.009Z,12.86
2024-04-30T03:15:54.629Z,12.78
2024-04-30T03:18:56.169Z,12.73
2024-04-30T03:21:57.710Z,12.80
2024-04-30T03:24:59.354Z,12.79
2024-04-30T03:28:02.936Z,12.77
2024-04-30T03:31:11.051Z,12.83
2024-04-30T03:34:12.624Z,12.81
2024-04-30T03:37:14.205Z,12.84
2024-04-30T03:40:15.990Z,12.88
2024-04-30T03:43:17.646Z,12.89
2024-04-30T03:46:19.232Z,12.83
2024-04-30T03:49:20.985Z,12.89
2024-04-30T03:52:22.635Z,12.97
2024-04-30T03:55:24.235Z,12.93
2024-04-30T03:58:25.888Z,12.70
2024-04-30T04:01:27.501Z,12.59
2024-04-30T04:04:29.166Z,12.61
2024-04-30T04:07:31.088Z,12.52
2024-04-30T04:10:32.729Z,12.51
2024-04-30T04:13:53.192Z,12.54
2024-04-30T04:16:54.731Z,12.56
2024-04-30T04:19:56.370Z,12.50
2024-04-30T04:22:57.919Z,12.47
2024-04-30T04:25:59.475Z,12.49
2024-04-30T04:29:01.717Z,12.54
2024-04-30T04:32:03.749Z,12.57
2024-04-30T04:35:05.383Z,12.61
2024-04-30T04:38:07.059Z,12.58
2024-04-30T04:41:08.661Z,12.57
2024-04-30T04:44:10.443Z,12.60
2024-04-30T04:47:12.046Z,12.69
2024-04-30T04:50:13.751Z,12.78
2024-04-30T04:53:15.307Z,12.81
2024-04-30T04:56:17.003Z,12.71
2024-04-30T04:59:18.603Z,12.69
2024-04-30T05:02:20.231Z,12.81
2024-04-30T05:05:21.822Z,12.84
2024-04-30T05:08:23.379Z,12.90
2024-04-30T05:11:25.027Z,12.98
2024-04-30T05:14:26.632Z,13.05
2024-04-30T05:17:28.433Z,13.09
2024-04-30T05:20:31.273Z,13.00
2024-04-30T05:23:32.923Z,12.97
2024-04-30T05:26:35.040Z,13.08
2024-04-30T05:29:37.609Z,13.14
2024-04-30T05:32:39.182Z,13.20
2024-04-30T05:35:40.956Z,13.30
2024-04-30T05:38:42.509Z,13.38
2024-04-30T05:41:44.059Z,13.41
2024-04-30T05:44:45.618Z,13.34
2024-04-30T05:47:47.308Z,13.33
2024-04-30T05:50:49.422Z,13.35
2024-04-30T05:53:54.212Z,13.37
2024-04-30T05:56:57.296Z,13.41
2024-04-30T05:59:58.904Z,13.50
2024-04-30T06:03:03.784Z,13.52
2024-04-30T06:06:09.993Z,13.38
2024-04-30T06:09:11.580Z,13.34
2024-04-30T06:12:13.238Z,13.31
2024-04-30T06:15:14.798Z,13.47
2024-04-30T06:18:16.559Z,13.52
2024-04-30T06:21:30.436Z,13.54
2024-04-30T06:24:33.217Z,13.60
2024-04-30T06:27:34.756Z,13.76
2024-04-30T06:30:36.303Z,14.10
2024-04-30T06:33:37.937Z,14.36
2024-04-30T06:36:39.640Z,14.41
2024-04-30T06:39:42.535Z,14.55
2024-04-30T06:42:44.075Z,14.50
2024-04-30T06:45:45.757Z,14.83
2024-04-30T06:48:47.341Z,15.08
2024-04-30T06:51:49.048Z,15.05
2024-04-30T06:54:50.606Z,15.16
2024-04-30T06:57:52.230Z,15.32
2024-04-30T07:00:53.850Z,15.29
2024-04-30T07:03:55.457Z,15.40
2024-04-30T07:06:57.003Z,15.31
2024-04-30T07:09:58.661Z,15.48
2024-04-30T07:13:00.745Z,15.43
2024-04-30T07:16:02.567Z,15.59
2024-04-30T07:19:04.198Z,15.73
2024-04-30T07:22:05.908Z,15.87
2024-04-30T07:25:07.718Z,16.13
2024-04-30T07:28:09.325Z,15.94
2024-04-30T07:31:10.937Z,15.84
2024-04-30T07:34:12.619Z,16.25
2024-04-30T07:37:14.249Z,16.27
2024-04-30T07:40:16.360Z,16.18
2024-04-30T07:43:18.031Z,16.27
2024-04-30T07:46:22.578Z,16.40
2024-04-30T07:49:24.356Z,16.73
2024-04-30T07:52:26.039Z,17.14
2024-04-30T07:55:27.625Z,17.38
2024-04-30T07:58:29.186Z,17.61
2024-04-30T08:01:30.781Z,17.77
2024-04-30T08:04:32.595Z,17.75
2024-04-30T08:07:34.267Z,17.95
2024-04-30T08:10:35.988Z,17.67
2024-04-30T08:13:38.973Z,17.71
2024-04-30T08:16:40.712Z,17.85
2024-04-30T08:19:42.612Z,18.00
2024-04-30T08:22:44.287Z,18.03
2024-04-30T08:25:45.911Z,18.05
2024-04-30T08:28:47.671Z,18.08
2024-04-30T08:31:49.740Z,18.41
2024-04-30T08:34:51.375Z,18.61
2024-04-30T08:37:58.731Z,18.65
2024-04-30T08:41:06.400Z,18.88
2024-04-30T08:44:09.061Z,19.07
2024-04-30T08:47:11.456Z,18.94
2024-04-30T08:50:16.704Z,18.74
2024-04-30T08:53:19.779Z,18.90
2024-04-30T08:56:21.981Z,19.21
2024-04-30T08:59:23.595Z,19.48
2024-04-30T09:02:25.873Z,19.74
2024-04-30T09:05:28.412Z,19.63
2024-04-30T09:08:30.021Z,19.30
2024-04-30T09:11:31.752Z,19.16
2024-04-30T09:14:43.389Z,19.09
2024-04-30T09:17:45.075Z,19.33
2024-04-30T09:20:47.276Z,19.45
2024-04-30T09:23:48.943Z,19.61
2024-04-30T09:26:51.316Z,19.58
2024-04-30T09:29:52.972Z,19.57
2024-04-30T09:32:54.702Z,19.59
2024-04-30T09:36:04.175Z,19.75
2024-04-30T09:39:09.585Z,20.04
2024-04-30T09:42:12.322Z,20.04
2024-04-30T09:45:14.314Z,20.12
2024-04-30T09:48:16.367Z,20.10
2024-04-30T09:51:19.296Z,20.20
2024-04-30T09:54:23.964Z,20.43
2024-04-30T09:57:28.114Z,20.57
2024-04-30T10:00:29.984Z,20.82
2024-04-30T10:03:36.063Z,20.81
2024-04-30T10:06:38.229Z,20.74
2024-04-30T10:09:39.880Z,20.58
2024-04-30T10:12:41.481Z,20.57
2024-04-30T10:15:43.041Z,20.60
2024-04-30T10:18:44.783Z,20.75
2024-04-30T10:21:46.340Z,21.03
2024-04-30T10:24:47.969Z,21.07
2024-04-30T10:27:49.594Z,21.32
2024-04-30T10:30:51.153Z,21.43
2024-04-30T10:33:55.315Z,21.41
2024-04-30T10:36:57.048Z,21.24
2024-04-30T10:40:17.326Z,21.48
2024-04-30T10:43:22.705Z,21.54
2024-04-30T10:46:26.227Z,21.72
2024-04-30T10:49:27.824Z,21.82
2024-04-30T10:52:29.427Z,21.79
2024-04-30T10:55:31.498Z,21.88
2024-04-30T10:58:34.030Z,21.85
2024-04-30T11:01:35.791Z,22.00
2024-04-30T11:04:37.519Z,22.12
2024-04-30T11:07:39.222Z,22.42
2024-04-30T11:10:41.027Z,22.79
2024-04-30T11:13:42.753Z,23.12
2024-04-30T11:16:46.435Z,23.35
2024-04-30T11:19:48.068Z,23.26
2024-04-30T11:22:49.831Z,23.18
2024-04-30T11:25:51.438Z,23.44
2024-04-30T11:29:08.674Z,23.53
2024-04-30T11:32:15.449Z,23.70
2024-04-30T11:35:17.209Z,23.95
2024-04-30T11:38:20.126Z,23.98
2024-04-30T11:41:21.805Z,24.11
2024-04-30T11:44:23.476Z,24.19
2024-04-30T11:47:25.142Z,24.29
2024-04-30T11:50:26.815Z,24.34
2024-04-30T11:53:29.165Z,24.53
2024-04-30T11:56:31.787Z,24.63
2024-04-30T11:59:33.526Z,24.84
2024-04-30T12:02:35.862Z,25.08
2024-04-30T12:05:37.696Z,25.01
2024-04-30T12:08:41.478Z,24.93
2024-04-30T12:11:43.132Z,24.97
2024-04-30T12:14:44.693Z,25.03
2024-04-30T12:17:46.463Z,25.16
2024-04-30T12:20:48.192Z,25.21
2024-04-30T12:23:49.951Z,25.15
2024-04-30T12:26:51.550Z,25.15
2024-04-30T12:29:53.329Z,25.23
2024-04-30T12:32:55.185Z,25.42
2024-04-30T12:35:56.768Z,25.29
2024-04-30T12:38:58.369Z,25.38
2024-04-30T12:41:59.958Z,25.57
2024-04-30T12:45:01.637Z,25.63
2024-04-30T12:48:04.024Z,25.83
2024-04-30T12:51:06.253Z,25.88
2024-04-30T12:54:07.871Z,25.91
2024-04-30T12:57:09.446Z,25.91
2024-04-30T13:00:11.652Z,25.97
2024-04-30T13:03:13.337Z,25.68
2024-04-30T13:06:15.942Z,25.96
2024-04-30T13:09:20.179Z,26.16
2024-04-30T13:12:21.784Z,26.33
2024-04-30T13:15:23.426Z,26.24
2024-04-30T13:18:25.065Z,26.22
2024-04-30T13:21:26.730Z,26.42
2024-04-30T13:24:28.331Z,26.45
2024-04-30T13:27:29.869Z,26.68
2024-04-30T13:30:31.859Z,26.99
2024-04-30T13:33:35.165Z,27.10
2024-04-30T13:36:36.799Z,27.18
2024-04-30T13:39:38.515Z,27.17
2024-04-30T13:42:40.147Z,26.83
2024-04-30T13:45:41.938Z,26.62
2024-04-30T13:48:43.685Z,26.57
2024-04-30T13:51:45.566Z,26.46
2024-04-30T13:54:47.112Z,26.37
2024-04-30T13:57:48.673Z,26.42
2024-04-30T14:00:50.268Z,26.52
2024-04-30T14:03:51.965Z,26.90
2024-04-30T14:06:53.590Z,27.32
2024-04-30T14:09:55.125Z,27.52
2024-04-30T14:12:56.703Z,27.61
2024-04-30T14:15:58.244Z,27.75
2024-04-30T14:18:59.820Z,27.56
2024-04-30T14:22:01.498Z,27.50
2024-04-30T14:25:03.034Z,27.70
2024-04-30T14:28:06.420Z,27.86
2024-04-30T14:31:08.239Z,28.06
2024-04-30T14:34:10.755Z,28.07
2024-04-30T14:37:12.404Z,28.23
2024-04-30T14:40:14.112Z,28.36
2024-04-30T14:43:15.785Z,28.40
2024-04-30T14:46:17.367Z,28.41
2024-04-30T14:49:20.769Z,28.23
2024-04-30T14:52:22.622Z,27.96
2024-04-30T14:55:24.214Z,28.26
2024-04-30T14:58:25.879Z,28.56
2024-04-30T15:01:27.591Z,28.74
2024-04-30T15:04:29.307Z,28.61
2024-04-30T15:07:31.022Z,28.66
2024-04-30T15:10:32.717Z,28.20
2024-04-30T15:13:35.208Z,28.34
2024-04-30T15:16:43.737Z,28.58
2024-04-30T15:19:45.562Z,28.50
2024-04-30T15:22:47.176Z,28.54
2024-04-30T15:25:48.844Z,28.53
2024-04-30T15:28:50.547Z,28.69
2024-04-30T15:31:52.160Z,28.72
2024-04-30T15:34:53.799Z,28.88
2024-04-30T15:37:55.490Z,28.90
2024-04-30T15:40:59.637Z,28.73
2024-04-30T15:44:01.683Z,28.74
2024-04-30T15:47:03.375Z,28.56
2024-04-30T15:50:05.194Z,28.51
2024-04-30T15:53:06.766Z,28.31
2024-04-30T15:56:19.457Z,28.09
2024-04-30T15:59:21.369Z,27.74
2024-04-30T16:02:22.921Z,27.78
2024-04-30T16:05:24.490Z,28.16
2024-04-30T16:08:26.043Z,28.27
2024-04-30T16:11:27.869Z,28.23
2024-04-30T16:14:29.489Z,28.00
2024-04-30T16:17:31.665Z,27.73
2024-04-30T16:20:33.443Z,27.62
2024-04-30T16:23:35.122Z,27.73
2024-04-30T16:26:40.728Z,27.81
2024-04-30T16:29:42.326Z,27.82
2024-04-30T16:32:44.097Z,27.61
2024-04-30T16:35:45.852Z,27.45
2024-04-30T16:38:47.473Z,27.31
2024-04-30T16:41:49.096Z,27.22
2024-04-30T16:44:56.265Z,27.18
2024-04-30T16:47:59.934Z,27.15
2024-04-30T16:51:01.558Z,27.03
2024-04-30T16:54:03.370Z,26.98
2024-04-30T16:57:05.069Z,26.87
2024-04-30T17:00:11.829Z,26.83
2024-04-30T17:03:13.730Z,26.73
2024-04-30T17:06:19.361Z,26.65
2024-04-30T17:09:23.095Z,26.55
2024-04-30T17:12:24.742Z,26.48
2024-04-30T17:15:26.360Z,26.42
2024-04-30T17:18:27.987Z,26.37
2024-04-30T17:21:29.596Z,26.33
2024-04-30T17:24:31.204Z,26.29
2024-04-30T17:27:33.188Z,26.16
2024-04-30T17:30:34.862Z,26.07
2024-04-30T17:33:36.525Z,25.97
2024-04-30T17:36:43.062Z,25.91
2024-04-30T17:39:45.590Z,25.86
2024-04-30T17:42:47.208Z,25.77
2024-04-30T17:45:48.899Z,25.71
2024-04-30T17:48:50.612Z,25.65
2024-04-30T17:51:52.708Z,25.54
2024-04-30T17:54:54.441Z,25.45
2024-04-30T17:57:56.116Z,25.37
2024-04-30T18:00:57.873Z,25.28
2024-04-30T18:03:59.739Z,25.24
2024-04-30T18:07:01.503Z,25.14
2024-04-30T18:10:03.253Z,25.06
2024-04-30T18:13:04.929Z,25.00
2024-04-30T18:16:06.651Z,24.91
2024-04-30T18:19:08.837Z,24.77
2024-04-30T18:22:10.567Z,24.65
2024-04-30T18:25:12.759Z,24.51
2024-04-30T18:28:14.298Z,24.45
2024-04-30T18:31:16.562Z,24.35
2024-04-30T18:34:18.639Z,24.27
2024-04-30T18:37:20.432Z,24.24
2024-04-30T18:40:22.009Z,24.19
2024-04-30T18:43:23.535Z,24.12
2024-04-30T18:46:25.112Z,23.97
2024-04-30T18:49:26.768Z,23.87
2024-04-30T18:52:28.336Z,23.78
2024-04-30T18:55:30.413Z,23.66
2024-04-30T18:58:32.834Z,23.51
2024-04-30T19:01:34.576Z,23.46
2024-04-30T19:04:41.685Z,23.47
2024-04-30T19:07:43.386Z,23.41
2024-04-30T19:10:44.978Z,23.32
2024-04-30T19:13:46.646Z,23.26
2024-04-30T19:16:48.342Z,23.24
2024-04-30T19:19:51.826Z,23.12
2024-04-30T19:22:54.586Z,23.06
2024-04-30T19:25:56.453Z,22.96
2024-04-30T19:28:58.103Z,22.88
2024-04-30T19:31:59.697Z,22.79
2024-04-30T19:35:01.437Z,22.65
2024-04-30T19:38:04.594Z,22.46
2024-04-30T19:41:06.241Z,22.36
2024-04-30T19:44:08.374Z,22.24
2024-04-30T19:47:10.043Z,22.10
2024-04-30T19:50:11.595Z,22.09
2024-04-30T19:53:13.255Z,22.03
2024-04-30T19:56:17.896Z,21.91
2024-04-30T19:59:20.031Z,21.81
2024-04-30T20:02:21.961Z,21.78
2024-04-30T20:05:23.699Z,21.60
2024-04-30T20:08:25.307Z,21.55
2024-04-30T20:11:27.166Z,21.43
2024-04-30T20:14:28.871Z,21.33
2024-04-30T20:17:30.438Z,21.26
2024-04-30T20:20:32.125Z,21.22
2024-04-30T20:23:33.795Z,21.21
2024-04-30T20:26:35.574Z,21.12
2024-04-30T20:29:37.155Z,20.93
2024-04-30T20:32:38.834Z,20.89
2024-04-30T20:35:40.519Z,20.76
2024-04-30T20:38:42.174Z,20.65
2024-04-30T20:41:44.716Z,20.44
2024-04-30T20:44:46.392Z,20.38
2024-04-30T20:47:48.042Z,20.39
2024-04-30T20:50:49.709Z,20.29
2024-04-30T20:53:51.291Z,20.20
2024-04-30T20:56:52.832Z,20.20
2024-04-30T20:59:54.542Z,19.98
2024-04-30T21:02:56.205Z,19.83
2024-04-30T21:05:57.991Z,19.71
2024-04-30T21:08:59.523Z,19.64
2024-04-30T21:12:01.131Z,19.56
2024-04-30T21:15:02.686Z,19.45
2024-04-30T21:18:04.596Z,19.32
2024-04-30T21:21:06.646Z,19.26
2024-04-30T21:24:10.652Z,19.16
2024-04-30T21:27:12.233Z,19.05
2024-04-30T21:30:13.838Z,18.96
2024-04-30T21:33:15.441Z,18.91
2024-04-30T21:36:17.327Z,18.92
2024-04-30T21:39:18.993Z,19.08
2024-04-30T21:42:20.771Z,18.94
2024-04-30T21:45:22.641Z,18.88
2024-04-30T21:48:24.299Z,18.76
2024-04-30T21:51:26.042Z,18.67
2024-04-30T21:54:27.634Z,18.68
2024-04-30T21:57:29.250Z,18.48
2024-04-30T22:00:30.917Z,18.41
2024-04-30T22:03:36.502Z,18.34
2024-04-30T22:06:38.144Z,18.28
2024-04-30T22:09:41.867Z,18.22
2024-04-30T22:12:43.472Z,18.26
2024-04-30T22:15:45.803Z,18.20
2024-04-30T22:18:47.555Z,18.16
2024-04-30T22:21:49.631Z,18.10
2024-04-30T22:24:51.451Z,18.09
2024-04-30T22:27:53.090Z,18.10
2024-04-30T22:30:54.800Z,18.07
2024-04-30T22:33:56.778Z,17.92
2024-04-30T22:36:58.493Z,17.72
2024-04-30T22:40:00.314Z,17.64
2024-04-30T22:43:02.373Z,17.60
2024-04-30T22:46:04.918Z,17.55
2024-04-30T22:49:06.717Z,17.60
2024-04-30T22:52:08.398Z,17.66
2024-04-30T22:55:09.961Z,17.68
2024-04-30T22:58:11.638Z,17.66
2024-04-30T23:01:13.255Z,17.58
2024-04-30T23:04:15.046Z,17.49
2024-04-30T23:07:16.686Z,17.60
2024-04-30T23:10:18.475Z,17.58
2024-04-30T23:13:20.093Z,17.54
2024-04-30T23:16:21.629Z,17.57
2024-04-30T23:19:23.247Z,17.57
2024-04-30T23:22:24.938Z,17.49
2024-04-30T23:25:26.509Z,17.49
2024-04-30T23:28:28.119Z,17.38
2024-04-30T23:31:29.734Z,17.16
2024-04-30T23:34:31.280Z,17.22
2024-04-30T23:37:32.902Z,17.23
2024-04-30T23:40:34.619Z,17.17
2024-04-30T23:43:39.525Z,17.19
2024-04-30T23:46:41.097Z,17.23
2024-04-30T23:49:42.772Z,17.23
2024-04-30T23:52:44.340Z,17.19
2024-04-30T23:55:45.879Z,17.01
2024-04-30T23:58:49.449Z,16.91
